Hauptseite
METAR-TAF:

METAR-TAF

Flughäfen :

RAF Coningsby

Coningsby, England

Breite: 53-05N, Länge: 000-10W, Höhe: 7 m

Beobachtung

Neuester Wetterbericht von vor 48 Minuten, um 01:50 UTC
Wind 8 kt aus Ost
Temperatur 4°C
Luftfeuchtigkeit 93%
Luftdruck 1030 hPa
Sichtweite: 8000 m
Himmel klar
trockener Dunst

METAR: EGXC 180150Z 08008KT 8000 HZ SKC 04/03 Q1030 BLU

Zeit: 02:38 (02:38 UTC)

Prognose

Neuester Wetterbericht von vor 45 Minuten, um 01:53 UTC
Gültige Prognose vom 18 um 03 UTC bis 18 um 21 UTC
Wind 8 kt aus Ost
Sichtweite 10 km oder mehr
keine Wolken unter 1500 m und keine Kumulonimbus oder Gewitterwolken
Wahrscheinlichkeit 40%
vom 18 um 03 UTC bis 18 um 10 UTC
Sichtweite: 6000 m
trockener Dunst

TAF: EGXC 180153Z 1803/1821 09008KT CAVOK PROB40 1803/1810 6000 HZ

Wetterbeobachtungen und Prognosen von mehr als 4000 Flughäfen (METAR und TAF Bericht).

Die verfügbaren Stationen werden durch gelbe und rote Markierungen auf der Karte dargestellt.

Führen Sie die Maus auf sie, um den Namen der Station zu sehen.

Darauf klicken, um die Beobachtung von Wetterbeobachtungen und Prognosen zu sehen.

Um die Karte zu ändern : klicken Sie auf den grünen Tasten mit einem schwarzen Kreuz Zum Vergrößern, auf den grünen Button mit einem Gedankenstrich zu verkleinern, oder auf die grünen Pfeile für benachbarte Karten.


METAR-TAF: